aviador You're here:

KMAO Decoded Metar

MARION in SC, USA
Report Time2017-10-23 23:55:00
UTC Time2017-10-24 00:10:34
Flight Rules vfr VFR
Wind160° at 12 Gusting to 21 kt
W.Decomp.*RWY 22: 7.1 kt HW 9.7 kt LCW
W.Rank160° ranks 14
Current wind is above 160° avg. (5.7)
Visibility9999 m
Phenomena:N/A
Clouds:Scattered 019 Hf
Scattered 045 Hf
Overcast 090 Hf
Expected CloudBase > 400 ft AGL from Temp-Dew spread
Ceiling9,000 ft
Temp22°C (ISA +7)
Dew Point21°C (94% RH)
AAT21.9°C
QNH1010 hPa
Density Alt1,358 ft
Elevation92 ft
Report Wrong Elevation
Raw Report
METAR KMAO 232355Z AUTO 16012G21KT 7SM SCT019 SCT045 OVC090 22/21 A2982
RMK AO2 LTG DSNT S AND SW P0005=

Extra information for KMAO:More info

Metar Taf Metar & Taf Last 4 Metars F.Rules Stats Wind Profile Meteogram Temp Stats Airport Information Weather charts Add Link Nearby VenuesMetar ALERT Operation Metar Decoded Social comments

AIRNAV info for KMAO